createdAt,value
2022-10-17T07:28:06.897Z,3.50
2022-10-17T07:30:33.502Z,3.80
2022-10-17T07:33:00.142Z,3.50
2022-10-17T07:35:26.831Z,3.90
2022-10-17T07:37:53.439Z,3.50
2022-10-17T07:40:20.064Z,3.67
2022-10-17T07:42:47.069Z,5.00
2022-10-17T07:45:13.901Z,4.20
2022-10-17T07:47:40.479Z,3.43
2022-10-17T07:50:08.169Z,3.50
2022-10-17T07:52:34.909Z,3.77
2022-10-17T07:55:01.552Z,3.50
2022-10-17T07:57:28.172Z,3.30
2022-10-17T07:59:54.751Z,3.10
2022-10-17T08:02:26.943Z,4.00
2022-10-17T08:04:54.212Z,4.00
2022-10-17T08:07:26.867Z,3.23
2022-10-17T08:09:55.944Z,3.63
2022-10-17T08:12:22.873Z,3.23
2022-10-17T08:14:49.541Z,2.90
2022-10-17T08:17:16.227Z,2.97
2022-10-17T08:19:42.905Z,3.20
2022-10-17T08:22:09.534Z,3.07
2022-10-17T08:24:36.100Z,3.30
2022-10-17T08:27:03.921Z,2.80
2022-10-17T08:29:32.716Z,2.57
2022-10-17T08:32:01.173Z,2.30
2022-10-17T08:34:28.607Z,2.70
2022-10-17T08:36:55.280Z,2.90
2022-10-17T08:39:22.219Z,2.77
2022-10-17T08:42:20.970Z,2.43
2022-10-17T08:45:14.820Z,2.10
2022-10-17T08:47:46.319Z,2.00
2022-10-17T08:50:44.889Z,2.23
2022-10-17T08:53:25.674Z,2.00
2022-10-17T08:55:54.478Z,2.90
2022-10-17T08:58:28.217Z,2.20
2022-10-17T09:01:13.852Z,2.57
2022-10-17T09:04:21.504Z,2.07
2022-10-17T09:07:10.383Z,3.03
2022-10-17T09:09:51.480Z,2.00
2022-10-17T09:12:24.475Z,2.30
2022-10-17T09:15:18.620Z,2.07
2022-10-17T09:17:53.863Z,3.40
2022-10-17T09:20:25.560Z,2.07
2022-10-17T09:25:28.440Z,1.80
2022-10-17T09:28:02.928Z,1.50
2022-10-17T09:30:47.328Z,1.80
2022-10-17T09:33:34.943Z,2.00
2022-10-17T09:36:17.186Z,1.20
2022-10-17T09:38:50.504Z,1.80
2022-10-17T09:41:47.249Z,1.90
2022-10-17T09:44:34.988Z,2.00
2022-10-17T09:47:04.370Z,1.63
2022-10-17T09:49:37.206Z,1.80
2022-10-17T09:52:08.645Z,1.20
2022-10-17T09:54:54.114Z,1.70
2022-10-17T09:57:21.926Z,1.60
2022-10-17T09:59:58.633Z,1.67
2022-10-17T10:02:27.216Z,2.03
2022-10-17T10:05:04.337Z,1.50
2022-10-17T10:07:40.997Z,0.80
2022-10-17T10:10:26.230Z,1.87
2022-10-17T10:13:27.047Z,1.13
2022-10-17T10:15:53.720Z,1.33
2022-10-17T10:18:35.935Z,1.77
2022-10-17T10:21:14.673Z,1.30
2022-10-17T10:23:43.883Z,1.50
2022-10-17T10:26:25.982Z,1.50
2022-10-17T10:29:01.093Z,1.30
2022-10-17T10:31:39.704Z,1.97
2022-10-17T10:34:28.977Z,1.53
2022-10-17T10:37:16.984Z,1.20
2022-10-17T10:39:51.932Z,1.63
2022-10-17T10:42:29.553Z,1.67
2022-10-17T10:45:29.277Z,1.30
2022-10-17T10:48:12.157Z,1.40
2022-10-17T10:50:45.397Z,1.37
2022-10-17T10:53:22.596Z,1.27
2022-10-17T10:55:59.844Z,1.87
2022-10-17T10:58:49.824Z,1.90
2022-10-17T11:01:39.097Z,1.80
2022-10-17T11:04:30.124Z,1.30
2022-10-17T11:07:22.569Z,1.33
2022-10-17T11:10:16.960Z,2.07
2022-10-17T11:13:14.734Z,1.50
2022-10-17T11:15:47.168Z,1.57
2022-10-17T11:18:28.449Z,1.80
2022-10-17T11:21:00.017Z,1.77
2022-10-17T11:23:42.979Z,1.50
2022-10-17T11:26:17.796Z,2.03
2022-10-17T11:28:44.459Z,1.57
2022-10-17T11:31:14.495Z,1.73
2022-10-17T11:33:52.447Z,1.73
2022-10-17T11:36:24.179Z,2.00
2022-10-17T11:39:03.573Z,1.80
2022-10-17T11:41:33.938Z,1.57
2022-10-17T11:44:31.778Z,1.67
2022-10-17T11:47:03.943Z,1.07
2022-10-17T11:49:40.672Z,1.50
2022-10-17T11:52:31.892Z,1.40
2022-10-17T11:55:22.062Z,1.10
2022-10-17T11:58:03.653Z,1.10
2022-10-17T12:00:51.308Z,1.50
2022-10-17T12:03:53.898Z,1.60
2022-10-17T12:06:29.512Z,1.47
2022-10-17T12:09:13.186Z,1.20
2022-10-17T12:11:50.739Z,0.55
2022-10-17T12:14:43.464Z,1.50
2022-10-17T12:17:32.506Z,1.47
2022-10-17T12:20:23.369Z,1.47
2022-10-17T12:22:58.342Z,2.00
2022-10-17T12:25:32.689Z,1.23
2022-10-17T12:28:09.150Z,1.23
2022-10-17T12:30:35.911Z,1.40
2022-10-17T12:33:22.740Z,1.10
2022-10-17T12:51:40.544Z,1.40
2022-10-17T12:54:14.901Z,1.10
2022-10-17T13:11:54.409Z,1.90
2022-10-17T13:14:22.810Z,1.30
2022-10-17T13:17:04.245Z,1.60
2022-10-17T13:19:43.821Z,1.33
2022-10-17T13:22:16.888Z,1.37
2022-10-17T13:24:44.053Z,1.50
2022-10-17T13:27:32.227Z,1.30
2022-10-17T13:30:01.192Z,1.27
2022-10-17T13:32:37.637Z,1.27
2022-10-17T13:35:17.117Z,2.10
2022-10-17T13:37:51.551Z,1.53
2022-10-17T13:40:40.745Z,2.03
2022-10-17T13:43:20.597Z,1.60
2022-10-17T13:46:02.344Z,1.90
2022-10-17T13:48:38.280Z,2.00
2022-10-17T13:51:10.292Z,1.90
2022-10-17T13:53:41.309Z,1.50
2022-10-17T13:56:30.152Z,1.83
2022-10-17T13:59:03.527Z,2.07
2022-10-17T14:01:30.881Z,1.60
2022-10-17T14:04:09.023Z,1.63
2022-10-17T14:06:47.891Z,2.00
2022-10-17T14:09:29.856Z,1.73
2022-10-17T14:12:11.022Z,1.90
2022-10-17T14:14:58.310Z,1.80
2022-10-17T14:17:28.437Z,2.40
2022-10-17T14:23:17.490Z,2.07
2022-10-17T14:25:40.279Z,1.90
2022-10-17T14:28:15.772Z,1.90
2022-10-17T14:30:56.773Z,2.27
2022-10-17T14:33:32.260Z,2.27
2022-10-17T14:36:01.335Z,2.20
2022-10-17T14:38:29.435Z,2.63
2022-10-17T14:41:42.830Z,3.10
2022-10-17T14:44:21.615Z,2.67
2022-10-17T14:46:53.602Z,2.13
2022-10-17T14:49:37.164Z,2.63
2022-10-17T14:52:18.550Z,2.00
2022-10-17T14:54:47.516Z,2.77
2022-10-17T14:57:34.832Z,1.60
2022-10-17T15:00:02.409Z,1.97
2022-10-17T15:02:30.586Z,2.70
2022-10-17T15:04:57.435Z,2.50
2022-10-17T15:07:24.216Z,2.07
2022-10-17T15:09:52.494Z,2.70
2022-10-17T15:12:22.344Z,2.10
2022-10-17T15:14:49.497Z,2.00
2022-10-17T15:17:30.913Z,2.17
2022-10-17T15:19:58.271Z,2.60
2022-10-17T15:22:25.369Z,3.37
2022-10-17T15:24:52.086Z,3.70
2022-10-17T15:27:22.243Z,2.73
2022-10-17T15:29:49.730Z,2.03
2022-10-17T15:32:16.487Z,3.20
2022-10-17T15:34:43.088Z,2.60
2022-10-17T15:37:35.786Z,2.47
2022-10-17T15:40:02.372Z,3.60
2022-10-17T15:42:30.389Z,3.13
2022-10-17T15:44:57.761Z,3.47
2022-10-17T15:47:25.683Z,2.90
2022-10-17T15:49:53.002Z,3.00
2022-10-17T15:52:19.597Z,2.70
2022-10-17T15:54:46.187Z,3.03
2022-10-17T15:57:29.357Z,2.90
2022-10-17T15:59:58.862Z,2.63
2022-10-17T16:02:26.004Z,2.30
2022-10-17T16:04:53.009Z,2.53
2022-10-17T16:07:21.022Z,3.07
2022-10-17T16:09:47.713Z,3.17
2022-10-17T16:12:36.891Z,3.33
2022-10-17T16:15:04.094Z,2.97
2022-10-17T16:17:31.030Z,3.33
2022-10-17T16:19:57.705Z,4.10
2022-10-17T16:22:36.439Z,3.93
2022-10-17T16:25:10.148Z,5.00
2022-10-17T16:27:37.612Z,4.33
2022-10-17T16:30:06.068Z,4.63
2022-10-17T16:32:33.238Z,4.70
2022-10-17T16:35:00.028Z,4.77
2022-10-17T16:37:27.022Z,4.50
2022-10-17T16:39:53.848Z,5.40
2022-10-17T16:42:20.959Z,5.60
2022-10-17T16:44:48.784Z,6.40
2022-10-17T16:47:16.135Z,6.80
2022-10-17T16:49:45.207Z,6.17
2022-10-17T16:52:12.310Z,5.63
2022-10-17T16:54:39.039Z,3.70
2022-10-17T16:57:06.707Z,4.40
2022-10-17T16:59:33.461Z,4.23
2022-10-17T17:02:00.182Z,4.60
2022-10-17T17:04:26.799Z,4.20
2022-10-17T17:06:53.549Z,5.17
2022-10-17T17:09:20.238Z,5.10
2022-10-17T17:11:46.908Z,5.10
2022-10-17T17:14:13.747Z,5.50
2022-10-17T17:16:40.609Z,5.47
2022-10-17T17:19:10.539Z,5.13
2022-10-17T17:21:37.574Z,5.00
2022-10-17T17:24:05.248Z,5.63
2022-10-17T17:26:36.513Z,5.20
2022-10-17T17:29:04.262Z,4.77
2022-10-17T17:31:33.145Z,5.30
2022-10-17T17:34:00.199Z,4.80
2022-10-17T17:36:32.239Z,5.20
2022-10-17T17:39:00.301Z,5.20
2022-10-17T17:41:27.776Z,5.20
2022-10-17T17:43:55.778Z,6.37
2022-10-17T17:46:24.040Z,5.27
2022-10-17T17:48:52.040Z,6.47
2022-10-17T17:51:25.589Z,4.77
2022-10-17T17:53:56.259Z,5.27
2022-10-17T17:56:28.643Z,5.13
2022-10-17T17:59:00.599Z,4.93
2022-10-17T18:01:30.145Z,5.07
2022-10-17T18:03:58.951Z,4.20
2022-10-17T18:06:26.449Z,6.23
2022-10-17T18:08:56.314Z,4.97
2022-10-17T18:11:23.189Z,4.90
2022-10-17T18:14:04.781Z,6.30
2022-10-17T18:16:33.263Z,5.20
2022-10-17T18:19:04.211Z,5.60
2022-10-17T18:21:33.702Z,5.77
2022-10-17T18:24:00.379Z,6.63
2022-10-17T18:26:27.649Z,6.90
2022-10-17T18:28:54.242Z,6.60
2022-10-17T18:31:35.198Z,5.20
2022-10-17T18:34:03.144Z,6.87
2022-10-17T18:36:30.883Z,7.17
2022-10-17T18:38:59.909Z,8.93
2022-10-17T18:41:27.506Z,7.90
2022-10-17T18:43:55.256Z,7.53
2022-10-17T18:46:37.652Z,8.30
2022-10-17T18:49:04.238Z,8.03
2022-10-17T18:51:30.856Z,8.60
2022-10-17T18:53:58.678Z,8.43
2022-10-17T18:56:25.868Z,8.07
2022-10-17T18:58:52.920Z,7.53
2022-10-17T19:01:21.953Z,7.97
2022-10-17T19:03:51.187Z,7.17
2022-10-17T19:06:20.760Z,7.13
2022-10-17T19:08:48.945Z,6.80
2022-10-17T19:11:21.305Z,7.30
2022-10-17T19:13:48.671Z,8.10
2022-10-17T19:16:30.063Z,7.83
2022-10-17T19:19:03.370Z,7.50
2022-10-17T19:21:30.069Z,8.50
2022-10-17T19:24:02.703Z,7.90
2022-10-17T19:26:31.684Z,7.93
2022-10-17T19:29:00.464Z,8.30
2022-10-17T19:31:29.589Z,7.33
2022-10-17T19:33:56.669Z,7.87
2022-10-17T19:36:30.563Z,8.53
2022-10-17T19:39:04.735Z,7.93
2022-10-17T19:41:32.018Z,8.53
2022-10-17T19:44:00.093Z,7.57
2022-10-17T19:46:28.310Z,7.20
2022-10-17T19:48:55.961Z,7.90
2022-10-17T19:51:24.904Z,7.67
2022-10-17T19:53:53.134Z,7.70
2022-10-17T19:56:21.550Z,6.90
2022-10-17T19:58:49.852Z,8.57
2022-10-17T20:01:19.482Z,7.77
2022-10-17T20:03:46.881Z,8.67
2022-10-17T20:06:13.875Z,7.60
2022-10-17T20:08:41.148Z,8.23
2022-10-17T20:11:19.726Z,7.80
2022-10-17T20:13:46.964Z,7.77
2022-10-17T20:16:17.545Z,6.40
2022-10-17T20:18:44.373Z,6.87
2022-10-17T20:21:14.379Z,7.20
2022-10-17T20:23:41.417Z,7.23
2022-10-17T20:26:33.195Z,8.17
2022-10-17T20:29:01.098Z,9.60
2022-10-17T20:31:28.040Z,8.63
2022-10-17T20:33:56.384Z,8.77
2022-10-17T20:36:23.508Z,8.10
2022-10-17T20:38:55.076Z,8.27
2022-10-17T20:41:21.820Z,6.50
2022-10-17T20:43:51.308Z,6.63
2022-10-17T20:46:35.137Z,8.63
2022-10-17T20:49:03.212Z,6.33
2022-10-17T20:51:29.953Z,7.03
2022-10-17T20:56:30.191Z,7.70
2022-10-17T20:59:02.328Z,8.00
2022-10-17T21:01:30.268Z,7.97
2022-10-17T21:04:06.056Z,7.30
2022-10-17T21:06:37.515Z,8.33
2022-10-17T21:09:05.918Z,7.37
2022-10-17T21:11:32.932Z,7.33
2022-10-17T21:14:01.579Z,8.17
2022-10-17T21:16:29.990Z,7.13
2022-10-17T21:18:57.413Z,6.03
2022-10-17T21:21:26.775Z,6.87
2022-10-17T21:23:57.567Z,7.20
2022-10-17T21:26:24.636Z,7.30
2022-10-17T21:28:51.283Z,7.00
2022-10-17T21:31:23.079Z,7.97
2022-10-17T21:33:54.829Z,7.63
2022-10-17T21:36:22.868Z,6.70
2022-10-17T21:38:51.286Z,6.73
2022-10-17T21:41:33.425Z,6.20
2022-10-17T21:44:21.412Z,7.70
2022-10-17T21:46:49.908Z,6.77
2022-10-17T21:49:18.887Z,6.30
2022-10-17T21:51:47.439Z,6.90
2022-10-17T21:54:15.075Z,6.37
2022-10-17T21:56:41.739Z,7.40
2022-10-17T21:59:09.249Z,7.43
2022-10-17T22:01:38.920Z,6.40
2022-10-17T22:04:08.075Z,6.70
2022-10-17T22:06:40.248Z,7.60
2022-10-17T22:09:11.799Z,6.60
2022-10-17T22:11:38.859Z,6.50
2022-10-17T22:14:11.109Z,6.67
2022-10-17T22:16:38.456Z,6.53
2022-10-17T22:19:06.871Z,6.53
2022-10-17T22:21:35.968Z,7.00
2022-10-17T22:24:05.591Z,6.57
2022-10-17T22:26:33.884Z,6.90
2022-10-17T22:29:00.992Z,6.73
2022-10-17T22:31:27.824Z,7.10
2022-10-17T22:33:54.467Z,6.50
2022-10-17T22:36:21.906Z,6.60
2022-10-17T22:38:48.697Z,7.20
2022-10-17T22:41:15.337Z,7.63
2022-10-17T22:43:42.013Z,6.27
2022-10-17T22:46:09.939Z,7.13
2022-10-17T22:48:36.994Z,6.50
2022-10-17T22:51:03.717Z,5.93
2022-10-17T22:53:30.761Z,6.60
2022-10-17T22:55:59.923Z,6.67
2022-10-17T22:58:28.062Z,5.97
2022-10-17T23:00:55.897Z,6.63
2022-10-17T23:03:23.795Z,7.00
2022-10-17T23:05:51.437Z,6.00
2022-10-17T23:08:20.291Z,6.10
2022-10-17T23:10:48.172Z,6.10
2022-10-17T23:13:15.172Z,5.67
2022-10-17T23:15:42.862Z,6.00
2022-10-17T23:18:09.957Z,6.07
2022-10-17T23:20:37.794Z,5.97
2022-10-17T23:23:04.840Z,7.00
2022-10-17T23:25:34.178Z,5.73
2022-10-17T23:28:01.206Z,6.63
2022-10-17T23:30:27.831Z,6.27
2022-10-17T23:32:54.486Z,6.60
2022-10-17T23:35:21.353Z,6.87
2022-10-17T23:37:47.964Z,6.73
2022-10-17T23:40:14.603Z,7.07
2022-10-17T23:42:41.260Z,6.13
2022-10-17T23:45:08.632Z,6.90
2022-10-17T23:47:35.286Z,5.90
2022-10-17T23:50:01.955Z,5.67
2022-10-17T23:52:28.680Z,6.40
2022-10-17T23:54:55.318Z,6.83
2022-10-17T23:57:21.961Z,6.23
2022-10-17T23:59:48.941Z,6.07
